Time;durP1;ratioP1;P1;durP2;ratioP2;P2;SDS_P1;SDS_P2;PMS_P1;PMS_P2;Temp;Humidity;BMP_temperature;BMP_pressure;BME280_temperature;BME280_humidity;BME280_pressure;Samples;Min_cycle;Max_cycle;Signal;HPM_P1;HPM_P2
2023/07/03 00:02:05;;;;;;;1.92;0.90;;;;;;;33.66;19.14;100847.22;4988321;28;20062;-71
2023/07/03 00:04:37;;;;;;;2.15;0.68;;;;;;;33.64;18.57;100841.06;4991189;28;20062;-73
2023/07/03 00:07:07;;;;;;;1.40;0.50;;;;;;;33.67;19.17;100856.09;4990167;28;20050;-72
2023/07/03 00:09:35;;;;;;;1.15;0.63;;;;;;;33.71;19.51;100860.31;4990003;28;20058;-71
2023/07/03 00:12:04;;;;;;;1.45;1.00;;;;;;;33.73;20.30;100861.09;4991199;28;20070;-71
2023/07/03 00:14:35;;;;;;;1.70;1.02;;;;;;;33.77;21.32;100854.56;4991364;28;20050;-73
2023/07/03 00:17:04;;;;;;;0.82;0.70;;;;;;;33.81;20.24;100850.69;4990735;28;20089;-71
2023/07/03 00:19:35;;;;;;;2.03;0.82;;;;;;;33.86;20.88;100843.19;4993996;28;20042;-72
2023/07/03 00:22:04;;;;;;;0.80;0.60;;;;;;;33.93;20.38;100839.13;4989708;28;20054;-71
2023/07/03 00:24:33;;;;;;;1.27;0.80;;;;;;;34.01;20.42;100841.28;4992986;28;20062;-71
2023/07/03 00:27:02;;;;;;;1.30;0.70;;;;;;;34.03;20.67;100843.88;4992503;28;20046;-72
2023/07/03 00:29:32;;;;;;;1.50;0.90;;;;;;;34.00;20.15;100837.75;4991142;28;20062;-70
2023/07/03 00:32:02;;;;;;;1.92;0.80;;;;;;;33.94;19.73;100831.94;4993257;28;20110;-70
2023/07/03 00:34:30;;;;;;;1.33;0.70;;;;;;;33.82;20.35;100830.94;4989449;28;20637;-72
2023/07/03 00:37:03;;;;;;;1.42;0.70;;;;;;;33.65;21.72;100833.88;4988932;28;20542;-73
2023/07/03 00:39:32;;;;;;;0.70;0.70;;;;;;;33.44;20.62;100833.44;4989346;28;20050;-72
2023/07/03 00:42:00;;;;;;;0.95;0.70;;;;;;;33.37;20.92;100835.66;4990846;28;20046;-71
2023/07/03 00:44:29;;;;;;;1.15;0.75;;;;;;;33.38;21.37;100826.69;4991272;28;20050;-70
2023/07/03 00:46:59;;;;;;;1.70;0.80;;;;;;;33.44;20.97;100826.25;4990068;28;20045;-73
2023/07/03 00:49:29;;;;;;;0.90;0.77;;;;;;;33.49;20.71;100824.16;4987601;28;20117;-71
2023/07/03 00:52:01;;;;;;;2.70;0.73;;;;;;;33.47;21.04;100825.19;4988896;28;20047;-71
2023/07/03 00:54:29;;;;;;;1.05;0.70;;;;;;;33.44;21.87;100818.19;4986449;28;20073;-74
2023/07/03 00:56:58;;;;;;;1.80;0.80;;;;;;;33.10;21.52;100812.38;4989636;28;20046;-74
2023/07/03 00:59:29;;;;;;;1.65;0.80;;;;;;;32.92;21.65;100816.19;4989087;28;20165;-72
2023/07/03 01:02:07;;;;;;;1.50;0.90;;;;;;;32.91;21.55;100818.00;4988774;28;20043;-74
2023/07/03 01:04:44;;;;;;;1.65;0.80;;;;;;;32.92;20.83;100813.50;4992096;28;20050;-74
2023/07/03 01:07:17;;;;;;;0.65;0.57;;;;;;;32.95;21.73;100816.00;4992467;28;20061;-71
2023/07/03 01:09:50;;;;;;;1.83;0.85;;;;;;;32.92;21.66;100813.50;4985249;28;20078;-73
2023/07/03 01:12:23;;;;;;;1.23;0.63;;;;;;;32.91;20.98;100811.78;4988949;28;20137;-71
2023/07/03 01:14:53;;;;;;;1.92;1.00;;;;;;;32.85;21.23;100812.16;4992549;28;20074;-72
2023/07/03 01:17:23;;;;;;;1.65;0.73;;;;;;;32.77;21.96;100804.59;4991951;28;20082;-70
2023/07/03 01:19:52;;;;;;;0.82;0.70;;;;;;;32.76;21.84;100797.53;4987279;28;20619;-69
2023/07/03 01:22:30;;;;;;;2.15;0.85;;;;;;;32.78;22.40;100805.47;4987154;28;20047;-70
2023/07/03 01:25:03;;;;;;;1.27;0.75;;;;;;;32.76;21.82;100801.06;4986615;28;20060;-70
2023/07/03 01:27:35;;;;;;;2.63;0.82;;;;;;;32.71;21.90;100797.84;4983094;28;20118;-70
2023/07/03 01:30:10;;;;;;;2.05;0.95;;;;;;;32.63;21.51;100792.09;4976210;28;20054;-68
2023/07/03 01:32:41;;;;;;;1.30;0.57;;;;;;;32.58;21.28;100793.34;4983132;28;20062;-71
2023/07/03 01:35:12;;;;;;;3.15;1.00;;;;;;;32.40;21.91;100779.22;4985992;28;20050;-69
2023/07/03 01:37:46;;;;;;;1.17;0.70;;;;;;;32.41;22.40;100792.50;4975540;28;20051;-70
2023/07/03 01:40:19;;;;;;;1.55;0.80;;;;;;;32.33;22.66;100784.94;4976442;28;20056;-68
2023/07/03 01:42:49;;;;;;;1.33;0.60;;;;;;;32.28;22.20;100786.22;4973708;28;20539;-69
2023/07/03 01:45:17;;;;;;;2.22;0.70;;;;;;;32.27;22.85;100792.50;4974042;28;21159;-69
2023/07/03 01:47:48;;;;;;;1.20;0.70;;;;;;;32.21;22.59;100772.31;4989909;28;20519;-69
2023/07/03 01:50:22;;;;;;;2.95;0.90;;;;;;;32.18;22.83;100785.88;4993356;28;20815;-69
2023/07/03 01:52:56;;;;;;;1.40;0.68;;;;;;;32.16;22.57;100793.13;4989275;28;20567;-69
2023/07/03 01:55:39;;;;;;;1.63;0.80;;;;;;;32.12;22.75;100792.47;4987271;28;20397;-69
2023/07/03 01:58:15;;;;;;;0.77;0.60;;;;;;;32.10;23.25;100788.19;4986852;28;20046;-68
2023/07/03 02:00:49;;;;;;;2.50;0.85;;;;;;;32.06;22.25;100786.63;4981053;28;20500;-71
2023/07/03 02:03:25;;;;;;;1.33;0.70;;;;;;;31.98;22.96;100783.53;4986266;28;20508;-69
2023/07/03 02:05:57;;;;;;;2.78;0.95;;;;;;;31.96;22.39;100793.47;4983976;28;20117;-69
2023/07/03 02:08:29;;;;;;;1.40;0.65;;;;;;;31.90;23.23;100782.16;4989112;28;20758;-69
2023/07/03 02:11:06;;;;;;;1.50;0.70;;;;;;;31.86;22.56;100782.44;4981707;28;20623;-68
2023/07/03 02:13:35;;;;;;;2.35;0.70;;;;;;;31.76;22.63;100783.94;4985219;28;20151;-68
2023/07/03 02:16:03;;;;;;;3.65;0.80;;;;;;;31.64;23.50;100796.22;4982668;28;20120;-69
2023/07/03 02:18:34;;;;;;;1.92;0.90;;;;;;;31.49;22.46;100789.94;4982740;28;20058;-71
2023/07/03 02:21:02;;;;;;;0.82;0.70;;;;;;;31.37;24.25;100783.44;4987890;28;20065;-70
2023/07/03 02:23:31;;;;;;;1.60;0.80;;;;;;;31.28;23.33;100790.16;4987707;28;20126;-68
2023/07/03 02:26:01;;;;;;;1.27;0.60;;;;;;;31.22;23.95;100790.53;4986659;28;20124;-70
2023/07/03 02:28:30;;;;;;;1.23;0.77;;;;;;;31.18;24.51;100788.97;4987462;28;20378;-69
2023/07/03 02:31:01;;;;;;;3.40;0.77;;;;;;;31.12;23.54;100796.47;4988670;28;20050;-70
2023/07/03 02:33:30;;;;;;;1.17;0.70;;;;;;;30.97;24.32;100790.16;4988832;28;20112;-71
2023/07/03 02:36:02;;;;;;;2.03;0.90;;;;;;;30.85;24.13;100786.34;4982622;28;20508;-70
2023/07/03 02:38:29;;;;;;;;;;;;;;;30.70;23.69;100788.03;4990582;28;20057;-68
2023/07/03 02:41:01;;;;;;;1.63;0.80;;;;;;;30.59;24.66;100791.28;4988392;28;20318;-69
2023/07/03 02:43:31;;;;;;;2.35;0.90;;;;;;;30.46;25.92;100791.06;4983340;28;20049;-70
2023/07/03 02:46:04;;;;;;;2.00;1.05;;;;;;;30.34;26.54;100788.19;4979423;28;20063;-69
2023/07/03 02:48:33;;;;;;;2.80;0.98;;;;;;;30.20;27.47;100804.91;4986729;28;20054;-70
2023/07/03 02:51:02;;;;;;;4.00;1.13;;;;;;;30.05;27.37;100790.53;4987036;28;20491;-70
2023/07/03 02:53:30;;;;;;;2.38;0.90;;;;;;;29.96;27.98;100794.56;4990113;28;20606;-70
2023/07/03 02:56:01;;;;;;;2.53;0.80;;;;;;;29.80;28.75;100790.91;4989366;28;20062;-70
2023/07/03 02:58:29;;;;;;;3.30;1.30;;;;;;;29.67;29.00;100798.66;4988795;28;20050;-70
2023/07/03 03:00:58;;;;;;;3.28;1.10;;;;;;;29.61;29.20;100801.59;4988914;28;20058;-69
2023/07/03 03:03:27;;;;;;;2.45;0.85;;;;;;;29.53;29.68;100814.47;4984160;28;20603;-68
2023/07/03 03:05:56;;;;;;;3.13;1.75;;;;;;;29.40;30.28;100804.38;4986284;28;20120;-70
2023/07/03 03:08:25;;;;;;;3.60;1.13;;;;;;;29.24;29.59;100816.72;4983015;28;20053;-68
2023/07/03 03:10:55;;;;;;;4.15;1.00;;;;;;;29.09;30.61;100798.78;4987472;28;20491;-70
2023/07/03 03:13:25;;;;;;;3.47;1.40;;;;;;;29.04;30.18;100810.47;4982030;28;20125;-71
2023/07/03 03:15:54;;;;;;;3.15;0.93;;;;;;;28.96;30.32;100815.31;4988665;28;20126;-71
2023/07/03 03:18:23;;;;;;;4.75;1.30;;;;;;;28.85;30.68;100812.28;4987485;28;20165;-72
2023/07/03 03:20:51;;;;;;;4.93;1.27;;;;;;;28.72;31.18;100813.75;4987456;28;20053;-71
2023/07/03 03:23:20;;;;;;;5.53;1.52;;;;;;;28.57;31.09;100818.00;4986180;28;20054;-70
2023/07/03 03:25:51;;;;;;;2.88;0.70;;;;;;;28.45;31.74;100815.81;4989100;28;20081;-71
2023/07/03 03:28:20;;;;;;;4.70;1.30;;;;;;;28.33;31.77;100817.22;4984761;28;20965;-71
2023/07/03 03:30:50;;;;;;;3.92;1.00;;;;;;;28.24;31.87;100820.28;4986337;28;20298;-71
2023/07/03 03:33:19;;;;;;;4.68;0.88;;;;;;;28.12;32.44;100822.53;4989357;28;20105;-71
2023/07/03 03:35:47;;;;;;;5.93;1.67;;;;;;;28.04;32.27;100819.38;4987990;28;20100;-71
2023/07/03 03:38:16;;;;;;;3.03;1.10;;;;;;;27.95;32.50;100817.94;4988546;28;20121;-70
2023/07/03 03:40:54;;;;;;;5.13;1.10;;;;;;;27.83;32.37;100818.41;4983231;28;20059;-70
2023/07/03 03:43:23;;;;;;;3.17;1.13;;;;;;;27.70;32.43;100826.03;4988068;28;20130;-69
2023/07/03 03:46:00;;;;;;;3.33;0.90;;;;;;;27.58;33.00;100826.56;4985965;28;20142;-70
2023/07/03 03:48:31;;;;;;;5.50;1.00;;;;;;;27.50;33.10;100828.63;4983507;28;20046;-71
2023/07/03 03:51:01;;;;;;;4.28;1.13;;;;;;;27.40;33.14;100829.91;4985490;28;20194;-70
2023/07/03 03:53:29;;;;;;;2.53;0.93;;;;;;;27.27;33.28;100835.72;4986894;28;20042;-69
2023/07/03 03:56:03;;;;;;;2.63;0.90;;;;;;;27.16;33.88;100835.22;4986442;28;20109;-69
2023/07/03 03:58:32;;;;;;;3.33;1.30;;;;;;;27.03;33.70;100833.94;4980250;28;20096;-70
2023/07/03 04:01:02;;;;;;;3.75;1.50;;;;;;;26.93;34.00;100841.41;4985191;28;20444;-71
2023/07/03 04:03:32;;;;;;;3.20;1.20;;;;;;;26.81;34.02;100840.06;4984000;28;20043;-70
2023/07/03 04:06:00;;;;;;;2.90;1.08;;;;;;;26.68;34.06;100841.44;4983118;28;20050;-70
2023/07/03 04:08:29;;;;;;;4.47;1.10;;;;;;;26.60;34.60;100843.53;4985308;28;20487;-69
2023/07/03 04:10:58;;;;;;;3.58;0.82;;;;;;;26.49;34.44;100844.72;4986079;28;20164;-71
2023/07/03 04:13:26;;;;;;;2.47;1.05;;;;;;;26.40;34.54;100849.50;4987084;28;20046;-71
2023/07/03 04:16:04;;;;;;;3.72;1.05;;;;;;;26.32;34.59;100849.75;4986617;28;20050;-70
2023/07/03 04:18:33;;;;;;;3.33;1.08;;;;;;;26.24;34.65;100849.16;4987190;28;20046;-71
2023/07/03 04:21:02;;;;;;;3.28;1.02;;;;;;;26.16;34.81;100843.22;4980233;28;20039;-70
2023/07/03 04:23:31;;;;;;;3.20;1.13;;;;;;;26.08;34.86;100854.09;4985716;28;20057;-70
2023/07/03 04:26:03;;;;;;;3.03;1.10;;;;;;;26.03;34.67;100851.59;4983965;28;20054;-68
2023/07/03 04:28:30;;;;;;;;;;;;;;;25.99;35.59;100860.56;4988391;28;20057;-68
2023/07/03 04:30:59;;;;;;;3.33;1.00;;;;;;;25.97;34.76;100857.09;4989150;28;19929;-70
2023/07/03 04:33:36;;;;;;;3.53;1.08;;;;;;;25.89;35.38;100849.41;4986721;28;20047;-68
2023/07/03 04:36:05;;;;;;;5.18;1.38;;;;;;;25.83;35.51;100864.59;4990856;28;20050;-70
2023/07/03 04:38:34;;;;;;;3.03;1.10;;;;;;;25.75;35.77;100866.63;4991803;28;20073;-69
2023/07/03 04:41:02;;;;;;;2.00;0.90;;;;;;;25.67;35.34;100875.69;4987167;28;20133;-69
2023/07/03 04:43:31;;;;;;;2.83;0.80;;;;;;;25.62;35.66;100877.63;4991017;28;20504;-72
2023/07/03 04:46:03;;;;;;;4.15;1.08;;;;;;;25.53;35.50;100883.19;4991549;28;20060;-71
2023/07/03 04:48:31;;;;;;;4.88;1.00;;;;;;;25.45;35.47;100888.75;4989837;28;20054;-71
2023/07/03 04:51:03;;;;;;;5.53;1.08;;;;;;;25.35;35.64;100889.91;4985822;28;20046;-69
2023/07/03 04:53:40;;;;;;;5.38;1.15;;;;;;;25.26;36.19;100883.09;4990938;28;20062;-69
2023/07/03 04:56:12;;;;;;;6.15;1.13;;;;;;;25.24;35.81;100892.00;4986042;28;20050;-69
2023/07/03 04:58:41;;;;;;;6.93;1.17;;;;;;;25.20;36.41;100891.25;4992456;28;20050;-71
2023/07/03 05:01:12;;;;;;;4.50;1.20;;;;;;;25.10;35.64;100892.38;4984531;28;20114;-69
2023/07/03 05:03:41;;;;;;;2.38;0.90;;;;;;;25.04;36.26;100897.88;4992988;28;20050;-70
2023/07/03 05:06:12;;;;;;;4.13;1.40;;;;;;;24.93;36.27;100898.16;4990760;28;20054;-71
2023/07/03 05:08:40;;;;;;;4.93;1.25;;;;;;;24.77;36.01;100892.41;4987311;28;20096;-70
2023/07/03 05:11:09;;;;;;;3.25;0.95;;;;;;;24.69;36.94;100894.38;4985781;28;20054;-70
2023/07/03 05:13:38;;;;;;;5.15;1.60;;;;;;;24.63;36.90;100889.28;4989931;28;20460;-69
2023/07/03 05:16:07;;;;;;;3.65;1.10;;;;;;;24.59;36.96;100898.22;4989359;28;20104;-67
2023/07/03 05:18:35;;;;;;;3.50;1.58;;;;;;;24.52;36.33;100888.69;4987813;28;20058;-68
2023/07/03 05:21:06;;;;;;;3.75;1.02;;;;;;;24.46;36.63;100887.94;4996149;28;20053;-70
2023/07/03 05:23:36;;;;;;;4.28;1.33;;;;;;;24.40;36.76;100880.13;4991182;28;20520;-71
2023/07/03 05:26:05;;;;;;;4.50;1.10;;;;;;;24.30;37.12;100875.13;4989308;28;20081;-69
2023/07/03 05:28:39;;;;;;;2.75;1.10;;;;;;;24.23;37.29;100879.69;4986380;28;20061;-71
2023/07/03 05:31:07;;;;;;;3.40;1.23;;;;;;;24.08;37.30;100870.38;4989700;28;20060;-71
2023/07/03 05:33:36;;;;;;;5.25;1.58;;;;;;;24.04;37.13;100877.50;4992011;28;20065;-73
2023/07/03 05:36:05;;;;;;;4.97;1.30;;;;;;;23.95;37.87;100885.66;4989206;28;20106;-71
2023/07/03 05:38:35;;;;;;;4.20;1.20;;;;;;;23.89;38.08;100882.28;4989286;28;20102;-70
2023/07/03 05:41:04;;;;;;;3.30;1.10;;;;;;;23.81;37.93;100877.19;4988859;28;20054;-70
2023/07/03 05:43:32;;;;;;;4.45;1.30;;;;;;;23.69;38.28;100872.16;4982463;28;20046;-73
2023/07/03 05:46:01;;;;;;;4.28;1.80;;;;;;;23.73;38.75;100889.66;4989479;28;20057;-71
2023/07/03 05:48:29;;;;;;;3.08;1.02;;;;;;;23.66;38.14;100882.78;4987287;28;20050;-71
2023/07/03 05:50:58;;;;;;;2.53;1.17;;;;;;;23.57;38.16;100890.03;4989261;28;20049;-71
2023/07/03 05:53:27;;;;;;;2.80;0.95;;;;;;;23.50;38.46;100885.78;4989736;28;20503;-70
2023/07/03 05:55:58;;;;;;;3.55;1.10;;;;;;;23.43;38.63;100886.81;4995436;28;20057;-70
2023/07/03 05:58:28;;;;;;;4.40;1.00;;;;;;;23.33;38.48;100890.56;4988404;28;20054;-72
2023/07/03 06:00:58;;;;;;;2.72;0.80;;;;;;;23.23;38.13;100883.72;4990195;28;20133;-70
2023/07/03 06:03:27;;;;;;;2.65;1.20;;;;;;;23.15;38.60;100881.25;4987408;28;20038;-71
2023/07/03 06:05:56;;;;;;;4.65;1.33;;;;;;;23.12;37.92;100890.09;4986668;28;20130;-67
2023/07/03 06:08:25;;;;;;;3.75;1.00;;;;;;;23.06;38.56;100887.56;4986884;28;20571;-70
2023/07/03 06:10:54;;;;;;;5.28;1.00;;;;;;;23.03;39.28;100886.78;4988009;28;20165;-69
2023/07/03 06:13:24;;;;;;;5.50;1.08;;;;;;;22.95;40.67;100894.78;4988047;28;20050;-69
2023/07/03 06:15:53;;;;;;;3.53;1.10;;;;;;;22.86;39.66;100889.69;4989990;28;20049;-70
2023/07/03 06:18:22;;;;;;;4.05;1.10;;;;;;;22.76;39.81;100889.88;4988210;28;20717;-68
2023/07/03 06:20:50;;;;;;;3.72;0.90;;;;;;;22.66;39.47;100892.72;4988180;28;20709;-70
2023/07/03 06:23:19;;;;;;;2.80;1.00;;;;;;;22.56;39.42;100905.19;4989544;28;20068;-70
2023/07/03 06:25:48;;;;;;;3.88;1.17;;;;;;;22.50;40.00;100897.41;4992311;28;20499;-69
2023/07/03 06:28:17;;;;;;;3.10;1.13;;;;;;;22.45;39.36;100893.97;4987772;28;20105;-69
2023/07/03 06:30:51;;;;;;;2.47;1.02;;;;;;;22.38;39.65;100894.09;4986877;28;20134;-68
2023/07/03 06:33:19;;;;;;;3.28;0.90;;;;;;;22.32;39.92;100891.53;4987757;28;20128;-69
2023/07/03 06:35:50;;;;;;;2.05;0.80;;;;;;;22.24;41.34;100900.47;4987122;28;20054;-68
2023/07/03 06:38:21;;;;;;;2.58;0.98;;;;;;;22.20;41.74;100894.34;4988551;28;20065;-68
2023/07/03 06:40:57;;;;;;;4.63;1.00;;;;;;;22.18;39.03;100893.50;4987045;28;20058;-70
2023/07/03 06:43:26;;;;;;;1.88;0.82;;;;;;;22.14;38.65;100905.00;4989452;28;20050;-68
2023/07/03 06:45:57;;;;;;;2.78;0.75;;;;;;;22.09;38.03;100906.84;4989108;28;20061;-69
2023/07/03 06:48:25;;;;;;;3.60;0.98;;;;;;;22.01;37.69;100901.66;4986805;28;20101;-69
2023/07/03 06:51:03;;;;;;;2.15;0.73;;;;;;;22.00;38.25;100906.97;4987044;28;20061;-68
2023/07/03 06:53:32;;;;;;;2.47;0.60;;;;;;;21.96;38.60;100901.72;4987877;28;20050;-67
2023/07/03 06:56:02;;;;;;;3.33;0.90;;;;;;;21.91;37.39;100903.56;4988085;28;20062;-68
2023/07/03 06:58:33;;;;;;;6.00;1.00;;;;;;;21.87;37.39;100916.81;4984404;28;20089;-67
2023/07/03 07:01:09;;;;;;;7.50;1.17;;;;;;;21.85;37.49;100903.69;4984510;28;20074;-66
2023/07/03 07:03:38;;;;;;;1.67;0.80;;;;;;;21.82;37.91;100908.97;4983622;28;20527;-67
2023/07/03 07:06:12;;;;;;;1.38;0.63;;;;;;;21.80;37.36;100916.03;4985796;28;20089;-68
2023/07/03 07:08:41;;;;;;;3.40;0.85;;;;;;;21.75;36.89;100917.88;4986803;28;20054;-68
2023/07/03 07:11:11;;;;;;;1.40;0.50;;;;;;;21.73;36.65;100917.88;4986350;28;20050;-69
2023/07/03 07:13:41;;;;;;;1.10;0.52;;;;;;;21.71;37.80;100921.44;4986313;28;20124;-67
2023/07/03 07:16:21;;;;;;;2.70;0.60;;;;;;;21.68;37.18;100921.47;4987164;28;20134;-67
2023/07/03 07:18:52;;;;;;;3.38;0.75;;;;;;;21.63;37.38;100926.81;4986752;28;20061;-67
2023/07/03 07:21:22;;;;;;;2.63;0.90;;;;;;;21.62;37.15;100927.69;4988585;28;20105;-69
2023/07/03 07:23:52;;;;;;;2.70;0.77;;;;;;;21.56;36.33;100922.53;4987132;28;20046;-66
2023/07/03 07:26:21;;;;;;;2.13;0.70;;;;;;;21.54;37.02;100921.66;4983963;28;20118;-68
2023/07/03 07:28:50;;;;;;;3.72;0.88;;;;;;;21.50;37.14;100928.72;4988971;28;20101;-67
2023/07/03 07:31:25;;;;;;;2.17;0.88;;;;;;;21.48;37.06;100930.50;4986681;28;20116;-68
2023/07/03 07:33:54;;;;;;;3.25;1.02;;;;;;;21.45;36.80;100932.31;4988429;28;20129;-68
2023/07/03 07:36:24;;;;;;;1.70;1.15;;;;;;;21.41;36.63;100931.47;4985397;28;20362;-68
2023/07/03 07:38:53;;;;;;;1.70;0.60;;;;;;;21.39;36.41;100929.72;4988403;28;20054;-68
2023/07/03 07:41:22;;;;;;;1.48;0.60;;;;;;;21.37;36.37;100920.97;4985864;28;20042;-68
2023/07/03 07:43:52;;;;;;;3.17;0.65;;;;;;;21.33;36.26;100931.53;4988429;28;20047;-69
2023/07/03 07:46:25;;;;;;;3.88;0.70;;;;;;;21.29;36.28;100926.34;4988691;28;20055;-68
2023/07/03 07:48:53;;;;;;;1.23;0.70;;;;;;;21.26;36.62;100927.25;4988231;28;20607;-67
2023/07/03 07:51:22;;;;;;;1.33;0.43;;;;;;;21.23;36.19;100935.16;4984670;28;20181;-67
2023/07/03 07:53:51;;;;;;;3.05;0.63;;;;;;;21.20;36.43;100924.69;4984837;28;20101;-67
2023/07/03 07:56:20;;;;;;;2.25;0.60;;;;;;;21.16;36.22;100930.00;4987114;28;20054;-67
2023/07/03 07:58:49;;;;;;;2.00;0.52;;;;;;;21.11;36.35;100925.66;4985903;28;20054;-69
2023/07/03 08:01:17;;;;;;;1.20;0.57;;;;;;;21.07;36.27;100923.97;4987385;28;20105;-68
2023/07/03 08:03:47;;;;;;;0.52;0.43;;;;;;;21.03;36.66;100922.25;4984583;28;20579;-68
2023/07/03 08:06:16;;;;;;;1.30;0.57;;;;;;;20.98;36.01;100929.31;4993738;28;20064;-68
2023/07/03 08:08:45;;;;;;;2.25;0.65;;;;;;;20.93;36.16;100931.13;4990775;28;20054;-67
2023/07/03 08:11:14;;;;;;;3.00;0.80;;;;;;;20.89;36.09;100932.91;4991298;28;20065;-67
2023/07/03 08:13:43;;;;;;;1.02;0.90;;;;;;;20.88;35.50;100928.53;4992745;28;20059;-67
2023/07/03 08:16:13;;;;;;;1.40;0.50;;;;;;;20.86;35.72;100929.44;4991980;28;20057;-67
2023/07/03 08:18:45;;;;;;;4.53;0.68;;;;;;;20.83;35.96;100930.34;4990633;28;20074;-68
2023/07/03 08:21:15;;;;;;;3.80;1.17;;;;;;;20.77;36.26;100926.91;4989538;28;20050;-67
2023/07/03 08:23:44;;;;;;;3.13;0.65;;;;;;;20.71;38.18;100931.34;4993456;28;20046;-68
2023/07/03 08:26:19;;;;;;;1.90;0.60;;;;;;;20.66;37.16;100922.63;4988654;28;20054;-67
2023/07/03 08:28:50;;;;;;;3.25;0.63;;;;;;;20.63;37.37;100927.03;4992557;28;20074;-67
2023/07/03 08:31:19;;;;;;;1.35;0.65;;;;;;;20.61;36.81;100928.81;4988352;28;20072;-66
2023/07/03 08:33:47;;;;;;;1.70;0.50;;;;;;;20.55;36.85;100928.81;4995609;28;20046;-66
2023/07/03 08:36:17;;;;;;;1.35;0.70;;;;;;;20.48;39.02;100933.28;4994551;28;20042;-66
2023/07/03 08:38:46;;;;;;;1.75;0.55;;;;;;;20.39;39.67;100928.09;4995693;28;20688;-67
2023/07/03 08:41:15;;;;;;;2.38;0.57;;;;;;;20.40;38.07;100932.47;4989974;28;20073;-67
2023/07/03 08:43:47;;;;;;;2.63;0.70;;;;;;;20.39;37.19;100933.34;4989557;28;20050;-67
2023/07/03 08:46:20;;;;;;;1.48;0.30;;;;;;;20.35;37.01;100929.88;4988273;28;20105;-67
2023/07/03 08:48:55;;;;;;;4.78;0.80;;;;;;;20.33;37.68;100933.41;4988482;28;20128;-67
2023/07/03 08:51:31;;;;;;;3.30;0.55;;;;;;;20.27;37.44;100934.31;4988316;28;20416;-67
2023/07/03 08:54:06;;;;;;;1.08;0.52;;;;;;;20.23;39.44;100933.47;4988702;28;20050;-67
2023/07/03 08:56:36;;;;;;;2.53;0.32;;;;;;;20.19;38.97;100936.13;4987885;28;20076;-67
2023/07/03 08:59:06;;;;;;;2.55;0.75;;;;;;;20.15;37.79;100927.38;4989256;28;20042;-67
2023/07/03 09:01:42;;;;;;;1.42;0.60;;;;;;;20.11;37.65;100933.53;4989204;28;20054;-68
2023/07/03 09:04:26;;;;;;;0.65;0.32;;;;;;;20.08;37.88;100938.81;4993248;28;20078;-67
2023/07/03 09:07:00;;;;;;;1.88;0.80;;;;;;;20.04;37.96;100934.47;4991965;28;20061;-68
2023/07/03 09:09:34;;;;;;;1.55;0.40;;;;;;;19.99;38.06;100939.75;4988497;28;20054;-68
2023/07/03 09:12:08;;;;;;;1.27;0.40;;;;;;;19.95;37.93;100930.16;4988240;28;20109;-68
2023/07/03 09:14:45;;;;;;;3.10;0.65;;;;;;;19.94;38.15;100938.06;4988813;28;20611;-67
2023/07/03 09:17:14;;;;;;;2.80;0.57;;;;;;;19.91;37.56;100925.81;4988671;28;20145;-68
2023/07/03 09:19:48;;;;;;;0.77;0.50;;;;;;;19.92;37.43;100934.56;4984757;28;20043;-68
2023/07/03 09:22:26;;;;;;;1.00;0.60;;;;;;;19.89;37.14;100927.56;4987091;28;20046;-67
2023/07/03 09:24:58;;;;;;;2.08;0.80;;;;;;;19.87;37.24;100934.59;4984504;28;20046;-67
2023/07/03 09:27:28;;;;;;;1.08;0.70;;;;;;;19.83;37.25;100928.47;4989216;28;20054;-67
2023/07/03 09:30:04;;;;;;;1.45;0.93;;;;;;;19.83;37.22;100928.47;4989015;28;20050;-67
2023/07/03 09:32:34;;;;;;;2.08;0.60;;;;;;;19.81;37.53;100931.97;4988834;28;20077;-67
2023/07/03 09:35:09;;;;;;;1.00;0.40;;;;;;;19.78;38.37;100935.50;4992202;28;20062;-67
2023/07/03 09:37:42;;;;;;;0.57;0.50;;;;;;;19.75;38.44;100926.78;4989347;28;20046;-66
2023/07/03 09:40:17;;;;;;;3.05;0.55;;;;;;;19.71;38.88;100928.53;4988845;28;20054;-67
2023/07/03 09:42:46;;;;;;;1.30;0.52;;;;;;;19.66;38.62;100935.53;4990638;28;20047;-67
2023/07/03 09:45:16;;;;;;;2.03;0.52;;;;;;;19.59;38.82;100933.84;4988003;28;20492;-67
2023/07/03 09:47:55;;;;;;;1.67;0.55;;;;;;;19.52;38.86;100942.63;4987682;28;20054;-67
2023/07/03 09:50:31;;;;;;;1.63;0.40;;;;;;;19.40;40.60;100927.78;4987315;28;20665;-67
2023/07/03 09:53:04;;;;;;;2.15;1.00;;;;;;;19.33;44.75;100937.41;4989243;28;20053;-67
2023/07/03 09:55:33;;;;;;;2.38;0.90;;;;;;;19.26;45.70;100933.06;4987331;28;20102;-68
2023/07/03 09:58:11;;;;;;;2.08;0.77;;;;;;;19.20;45.78;100933.13;4991354;28;20123;-67
2023/07/03 10:00:46;;;;;;;2.88;0.77;;;;;;;19.13;46.55;100934.03;4988249;28;20178;-68
2023/07/03 10:03:14;;;;;;;1.88;0.60;;;;;;;19.01;46.03;100934.91;4992869;28;20054;-67
2023/07/03 10:05:44;;;;;;;3.45;0.70;;;;;;;18.91;46.16;100934.03;4985257;28;20514;-67
2023/07/03 10:08:19;;;;;;;2.17;0.68;;;;;;;18.83;46.08;100926.22;4984668;28;20750;-67
2023/07/03 10:10:51;;;;;;;3.33;0.70;;;;;;;18.85;46.58;100931.44;4989750;28;20122;-67
2023/07/03 10:13:26;;;;;;;1.85;0.73;;;;;;;18.82;46.79;100936.69;4986897;28;20053;-66
2023/07/03 10:15:58;;;;;;;4.13;0.88;;;;;;;18.78;46.95;100935.84;4984910;28;20058;-68
2023/07/03 10:18:31;;;;;;;6.18;0.75;;;;;;;18.72;46.91;100930.56;4986761;28;20050;-68
2023/07/03 10:21:02;;;;;;;2.63;0.80;;;;;;;18.69;47.41;100933.19;4990389;28;20100;-67
2023/07/03 10:23:35;;;;;;;1.90;0.70;;;;;;;18.65;47.45;100930.56;4986163;28;20182;-68
2023/07/03 10:26:10;;;;;;;2.40;0.60;;;;;;;18.59;48.01;100931.44;4987662;28;20050;-67
2023/07/03 10:28:43;;;;;;;1.50;0.60;;;;;;;18.49;48.58;100934.94;4988130;28;20055;-66
2023/07/03 10:31:20;;;;;;;1.80;0.68;;;;;;;18.39;48.56;100932.34;4986784;28;20058;-67
2023/07/03 10:33:51;;;;;;;2.30;0.70;;;;;;;18.31;49.90;100941.06;4988897;28;20050;-67
2023/07/03 10:36:24;;;;;;;3.72;0.82;;;;;;;18.17;50.27;100936.66;4989521;28;20755;-68
2023/07/03 10:39:00;;;;;;;1.48;0.88;;;;;;;18.11;49.76;100939.28;4986848;28;20136;-67
2023/07/03 10:41:32;;;;;;;2.40;0.63;;;;;;;18.08;49.76;100936.66;4987679;28;20042;-68
2023/07/03 10:44:08;;;;;;;1.00;0.60;;;;;;;18.01;49.82;100942.75;4987918;28;20050;-67
2023/07/03 10:46:41;;;;;;;2.65;0.70;;;;;;;17.94;50.15;100941.88;4985701;28;20058;-67
2023/07/03 10:49:18;;;;;;;2.80;0.90;;;;;;;17.91;49.72;100941.88;4985284;28;20054;-68
2023/07/03 10:51:55;;;;;;;2.25;0.60;;;;;;;17.80;49.63;100939.19;4989357;28;20582;-67
2023/07/03 10:54:31;;;;;;;3.22;0.70;;;;;;;17.83;50.49;100959.28;4989413;28;20051;-67
2023/07/03 10:57:03;;;;;;;2.42;0.88;;;;;;;17.80;50.74;100949.66;4981661;28;20054;-67
2023/07/03 10:59:33;;;;;;;1.33;0.85;;;;;;;17.74;50.40;100952.25;4986069;28;20046;-67
2023/07/03 11:02:17;;;;;;;1.42;0.63;;;;;;;17.72;50.88;100955.72;4986451;28;20060;-66
2023/07/03 11:04:54;;;;;;;1.52;0.68;;;;;;;17.66;51.01;100958.31;4987855;28;20141;-66
2023/07/03 11:07:32;;;;;;;5.07;0.93;;;;;;;17.55;51.20;100942.59;4986732;28;20062;-66
2023/07/03 11:10:10;;;;;;;2.15;0.80;;;;;;;17.55;51.29;100953.06;4986177;28;20047;-68
2023/07/03 11:12:46;;;;;;;3.17;1.02;;;;;;;17.51;51.94;100956.53;4988100;28;20070;-67
2023/07/03 11:15:28;;;;;;;1.25;0.70;;;;;;;17.45;53.13;100956.50;4982996;28;20046;-68
2023/07/03 11:18:14;;;;;;;2.90;0.82;;;;;;;17.40;53.20;100953.00;4985539;28;20133;-68
2023/07/03 11:20:52;;;;;;;5.72;1.13;;;;;;;17.33;53.87;100958.19;4988012;28;20100;-67
2023/07/03 11:23:30;;;;;;;4.22;1.35;;;;;;;17.28;53.50;100948.56;4986256;28;20050;-67
2023/07/03 11:26:07;;;;;;;2.92;1.20;;;;;;;17.18;53.50;100952.91;4987579;28;20046;-67
2023/07/03 11:28:43;;;;;;;1.73;1.00;;;;;;;17.13;54.01;100957.19;4987707;28;20054;-66
2023/07/03 11:31:14;;;;;;;1.20;0.68;;;;;;;17.07;53.93;100962.41;4988011;28;20680;-68
2023/07/03 11:33:44;;;;;;;5.47;0.75;;;;;;;17.00;53.56;100958.03;4988204;28;20090;-66
2023/07/03 11:36:38;;;;;;;4.85;0.90;;;;;;;16.99;54.45;100964.97;4986564;28;20050;-67
2023/07/03 11:39:22;;;;;;;2.10;0.93;;;;;;;16.93;54.44;100957.97;4985762;28;20887;-68
2023/07/03 11:41:55;;;;;;;2.70;0.85;;;;;;;16.87;55.64;100970.13;4988177;28;20054;-69
2023/07/03 11:44:33;;;;;;;2.35;0.77;;;;;;;16.80;55.74;100963.09;4986803;28;20046;-68
2023/07/03 11:47:06;;;;;;;2.15;0.70;;;;;;;16.78;55.34;100968.28;4987926;28;20046;-66